sensor_id;sensor_type;location;lat;lon;timestamp;temperature;humidity
2723;DHT22;1369;53.216;10.396;2022-12-18T00:02:14;-6.80;99.90
2723;DHT22;1369;53.216;10.396;2022-12-18T00:04:39;-6.90;99.90
2723;DHT22;1369;53.216;10.396;2022-12-18T00:07:05;-7.00;99.90
2723;DHT22;1369;53.216;10.396;2022-12-18T00:09:31;-7.10;99.90
2723;DHT22;1369;53.216;10.396;2022-12-18T00:11:56;-7.10;99.90
2723;DHT22;1369;53.216;10.396;2022-12-18T00:14:21;-7.20;99.90
2723;DHT22;1369;53.216;10.396;2022-12-18T00:16:47;-7.20;99.90
2723;DHT22;1369;53.216;10.396;2022-12-18T00:19:13;-7.30;99.90
2723;DHT22;1369;53.216;10.396;2022-12-18T00:21:40;-7.20;99.90
2723;DHT22;1369;53.216;10.396;2022-12-18T00:24:06;-7.20;99.90
2723;DHT22;1369;53.216;10.396;2022-12-18T00:26:34;-7.20;99.90
2723;DHT22;1369;53.216;10.396;2022-12-18T00:29:11;-7.20;99.90
2723;DHT22;1369;53.216;10.396;2022-12-18T00:31:39;-7.20;99.90
2723;DHT22;1369;53.216;10.396;2022-12-18T00:34:05;-7.30;99.90
2723;DHT22;1369;53.216;10.396;2022-12-18T00:36:34;-7.20;99.90
2723;DHT22;1369;53.216;10.396;2022-12-18T00:39:02;-7.10;99.90
2723;DHT22;1369;53.216;10.396;2022-12-18T00:41:28;-7.00;99.90
2723;DHT22;1369;53.216;10.396;2022-12-18T00:44:15;-7.00;99.90
2723;DHT22;1369;53.216;10.396;2022-12-18T00:46:42;-7.00;99.90
2723;DHT22;1369;53.216;10.396;2022-12-18T00:49:08;-7.00;99.90
2723;DHT22;1369;53.216;10.396;2022-12-18T00:51:33;-7.20;99.90
2723;DHT22;1369;53.216;10.396;2022-12-18T00:53:59;-7.20;99.90
2723;DHT22;1369;53.216;10.396;2022-12-18T00:56:25;-7.20;99.90
2723;DHT22;1369;53.216;10.396;2022-12-18T00:58:50;-7.20;99.90
2723;DHT22;1369;53.216;10.396;2022-12-18T01:01:16;-7.20;99.90
2723;DHT22;1369;53.216;10.396;2022-12-18T01:03:41;-7.20;99.90
2723;DHT22;1369;53.216;10.396;2022-12-18T01:06:08;-7.30;99.90
2723;DHT22;1369;53.216;10.396;2022-12-18T01:08:34;-7.50;99.90
2723;DHT22;1369;53.216;10.396;2022-12-18T01:11:01;-7.50;99.90
2723;DHT22;1369;53.216;10.396;2022-12-18T01:13:32;-7.60;99.90
2723;DHT22;1369;53.216;10.396;2022-12-18T01:15:57;-7.60;99.90
2723;DHT22;1369;53.216;10.396;2022-12-18T01:18:22;-7.50;99.90
2723;DHT22;1369;53.216;10.396;2022-12-18T01:20:48;-7.50;99.90
2723;DHT22;1369;53.216;10.396;2022-12-18T01:23:13;-7.50;99.90
2723;DHT22;1369;53.216;10.396;2022-12-18T01:25:39;-7.50;99.90
2723;DHT22;1369;53.216;10.396;2022-12-18T01:28:04;-7.60;99.90
2723;DHT22;1369;53.216;10.396;2022-12-18T01:30:30;-7.60;99.90
2723;DHT22;1369;53.216;10.396;2022-12-18T01:32:55;-7.60;99.90
2723;DHT22;1369;53.216;10.396;2022-12-18T01:35:21;-7.50;99.90
2723;DHT22;1369;53.216;10.396;2022-12-18T01:37:46;-7.40;99.90
2723;DHT22;1369;53.216;10.396;2022-12-18T01:40:12;-7.30;99.90
2723;DHT22;1369;53.216;10.396;2022-12-18T01:42:38;-7.30;99.90
2723;DHT22;1369;53.216;10.396;2022-12-18T01:50:21;-7.50;99.90
2723;DHT22;1369;53.216;10.396;2022-12-18T01:52:50;-7.40;99.90
2723;DHT22;1369;53.216;10.396;2022-12-18T01:55:19;-7.30;99.90
2723;DHT22;1369;53.216;10.396;2022-12-18T01:57:46;-7.30;99.90
2723;DHT22;1369;53.216;10.396;2022-12-18T02:00:20;-7.30;99.90
2723;DHT22;1369;53.216;10.396;2022-12-18T02:02:46;-7.30;99.90
2723;DHT22;1369;53.216;10.396;2022-12-18T02:05:16;-7.50;99.90
2723;DHT22;1369;53.216;10.396;2022-12-18T02:19:00;-7.60;99.90
2723;DHT22;1369;53.216;10.396;2022-12-18T02:21:47;-7.60;99.90
2723;DHT22;1369;53.216;10.396;2022-12-18T02:24:28;-7.70;99.90
2723;DHT22;1369;53.216;10.396;2022-12-18T02:27:03;-7.80;99.90
2723;DHT22;1369;53.216;10.396;2022-12-18T02:29:52;-7.70;99.90
2723;DHT22;1369;53.216;10.396;2022-12-18T02:32:42;-7.70;99.90
2723;DHT22;1369;53.216;10.396;2022-12-18T02:35:08;-7.70;99.90
2723;DHT22;1369;53.216;10.396;2022-12-18T02:37:35;-7.80;99.90
2723;DHT22;1369;53.216;10.396;2022-12-18T02:40:04;-7.70;99.90
2723;DHT22;1369;53.216;10.396;2022-12-18T02:42:30;-7.80;99.90
2723;DHT22;1369;53.216;10.396;2022-12-18T02:44:56;-7.80;99.90
2723;DHT22;1369;53.216;10.396;2022-12-18T02:47:24;-7.80;99.90
2723;DHT22;1369;53.216;10.396;2022-12-18T02:52:37;-7.80;99.90
2723;DHT22;1369;53.216;10.396;2022-12-18T02:57:56;-7.80;99.90
2723;DHT22;1369;53.216;10.396;2022-12-18T03:00:33;-7.90;99.90
2723;DHT22;1369;53.216;10.396;2022-12-18T03:03:09;-7.90;99.90
2723;DHT22;1369;53.216;10.396;2022-12-18T03:05:50;-8.00;99.90
2723;DHT22;1369;53.216;10.396;2022-12-18T03:08:22;-8.00;99.90
2723;DHT22;1369;53.216;10.396;2022-12-18T03:11:02;-8.00;99.90
2723;DHT22;1369;53.216;10.396;2022-12-18T03:13:36;-8.00;99.90
2723;DHT22;1369;53.216;10.396;2022-12-18T03:16:06;-7.90;99.90
2723;DHT22;1369;53.216;10.396;2022-12-18T03:18:35;-7.90;99.90
2723;DHT22;1369;53.216;10.396;2022-12-18T03:21:05;-7.90;99.90
2723;DHT22;1369;53.216;10.396;2022-12-18T03:23:35;-7.90;99.90
2723;DHT22;1369;53.216;10.396;2022-12-18T03:26:07;-7.90;99.90
2723;DHT22;1369;53.216;10.396;2022-12-18T03:28:38;-7.90;99.90
2723;DHT22;1369;53.216;10.396;2022-12-18T03:31:05;-7.80;99.90
2723;DHT22;1369;53.216;10.396;2022-12-18T03:33:47;-7.70;99.90
2723;DHT22;1369;53.216;10.396;2022-12-18T03:36:16;-7.60;99.90
2723;DHT22;1369;53.216;10.396;2022-12-18T03:38:41;-7.50;99.90
2723;DHT22;1369;53.216;10.396;2022-12-18T03:43:49;-7.60;99.90
2723;DHT22;1369;53.216;10.396;2022-12-18T03:46:30;-7.60;99.90
2723;DHT22;1369;53.216;10.396;2022-12-18T03:49:11;-7.60;99.90
2723;DHT22;1369;53.216;10.396;2022-12-18T03:51:59;-7.50;99.90
2723;DHT22;1369;53.216;10.396;2022-12-18T03:54:27;-7.40;99.90
2723;DHT22;1369;53.216;10.396;2022-12-18T03:57:04;-7.40;99.90
2723;DHT22;1369;53.216;10.396;2022-12-18T03:59:31;-7.30;99.90
2723;DHT22;1369;53.216;10.396;2022-12-18T04:01:59;-7.30;99.90
2723;DHT22;1369;53.216;10.396;2022-12-18T04:04:27;-7.40;99.90
2723;DHT22;1369;53.216;10.396;2022-12-18T04:06:54;-7.40;99.90
2723;DHT22;1369;53.216;10.396;2022-12-18T04:09:20;-7.50;99.90
2723;DHT22;1369;53.216;10.396;2022-12-18T04:11:47;-7.50;99.90
2723;DHT22;1369;53.216;10.396;2022-12-18T04:14:13;-7.60;99.90
2723;DHT22;1369;53.216;10.396;2022-12-18T04:16:38;-7.70;99.90
2723;DHT22;1369;53.216;10.396;2022-12-18T04:19:04;-7.80;99.90
2723;DHT22;1369;53.216;10.396;2022-12-18T04:21:30;-7.80;99.90
2723;DHT22;1369;53.216;10.396;2022-12-18T04:23:55;-7.70;99.90
2723;DHT22;1369;53.216;10.396;2022-12-18T04:26:21;-7.80;99.90
2723;DHT22;1369;53.216;10.396;2022-12-18T04:28:47;-7.80;99.90
2723;DHT22;1369;53.216;10.396;2022-12-18T04:31:12;-7.80;99.90
2723;DHT22;1369;53.216;10.396;2022-12-18T04:33:38;-7.80;99.90
2723;DHT22;1369;53.216;10.396;2022-12-18T04:36:04;-7.90;99.90
2723;DHT22;1369;53.216;10.396;2022-12-18T04:38:30;-7.90;99.90
2723;DHT22;1369;53.216;10.396;2022-12-18T04:40:55;-7.80;99.90
2723;DHT22;1369;53.216;10.396;2022-12-18T04:43:21;-7.80;99.90
2723;DHT22;1369;53.216;10.396;2022-12-18T04:45:46;-7.70;99.90
2723;DHT22;1369;53.216;10.396;2022-12-18T04:48:12;-7.70;99.90
2723;DHT22;1369;53.216;10.396;2022-12-18T04:50:37;-7.60;99.90
2723;DHT22;1369;53.216;10.396;2022-12-18T04:53:03;-7.50;99.90
2723;DHT22;1369;53.216;10.396;2022-12-18T04:55:28;-7.60;99.90
2723;DHT22;1369;53.216;10.396;2022-12-18T04:57:54;-7.60;99.90
2723;DHT22;1369;53.216;10.396;2022-12-18T05:00:20;-7.60;99.90
2723;DHT22;1369;53.216;10.396;2022-12-18T05:02:45;-7.60;99.90
2723;DHT22;1369;53.216;10.396;2022-12-18T05:05:11;-7.60;99.90
2723;DHT22;1369;53.216;10.396;2022-12-18T05:07:36;-7.50;99.90
2723;DHT22;1369;53.216;10.396;2022-12-18T05:10:03;-7.50;99.90
2723;DHT22;1369;53.216;10.396;2022-12-18T05:12:32;-7.50;99.90
2723;DHT22;1369;53.216;10.396;2022-12-18T05:14:57;-7.60;99.90
2723;DHT22;1369;53.216;10.396;2022-12-18T05:17:23;-7.50;99.90
2723;DHT22;1369;53.216;10.396;2022-12-18T05:19:48;-7.60;99.90
2723;DHT22;1369;53.216;10.396;2022-12-18T05:22:14;-7.50;99.90
2723;DHT22;1369;53.216;10.396;2022-12-18T05:24:42;-7.50;99.90
2723;DHT22;1369;53.216;10.396;2022-12-18T05:27:08;-7.50;99.90
2723;DHT22;1369;53.216;10.396;2022-12-18T05:29:34;-7.50;99.90
2723;DHT22;1369;53.216;10.396;2022-12-18T05:31:59;-7.50;99.90
2723;DHT22;1369;53.216;10.396;2022-12-18T05:34:25;-7.60;99.90
2723;DHT22;1369;53.216;10.396;2022-12-18T05:36:50;-7.70;99.90
2723;DHT22;1369;53.216;10.396;2022-12-18T05:39:16;-7.70;99.90
2723;DHT22;1369;53.216;10.396;2022-12-18T05:41:41;-7.70;99.90
2723;DHT22;1369;53.216;10.396;2022-12-18T05:44:07;-7.80;99.90
2723;DHT22;1369;53.216;10.396;2022-12-18T05:46:32;-7.80;99.90
2723;DHT22;1369;53.216;10.396;2022-12-18T05:49:01;-7.90;99.90
2723;DHT22;1369;53.216;10.396;2022-12-18T05:51:27;-7.90;99.90
2723;DHT22;1369;53.216;10.396;2022-12-18T05:53:52;-7.90;99.90
2723;DHT22;1369;53.216;10.396;2022-12-18T05:56:19;-7.90;99.90
2723;DHT22;1369;53.216;10.396;2022-12-18T05:58:46;-7.90;99.90
2723;DHT22;1369;53.216;10.396;2022-12-18T06:01:17;-8.00;99.90
2723;DHT22;1369;53.216;10.396;2022-12-18T06:03:43;-8.00;99.90
2723;DHT22;1369;53.216;10.396;2022-12-18T06:06:17;-8.00;99.90
2723;DHT22;1369;53.216;10.396;2022-12-18T06:08:43;-7.90;99.90
2723;DHT22;1369;53.216;10.396;2022-12-18T06:11:08;-8.00;99.90
2723;DHT22;1369;53.216;10.396;2022-12-18T06:13:34;-7.90;99.90
2723;DHT22;1369;53.216;10.396;2022-12-18T06:16:02;-7.90;99.90
2723;DHT22;1369;53.216;10.396;2022-12-18T06:18:28;-7.90;99.90
2723;DHT22;1369;53.216;10.396;2022-12-18T06:20:55;-7.90;99.90
2723;DHT22;1369;53.216;10.396;2022-12-18T06:23:21;-7.90;99.90
2723;DHT22;1369;53.216;10.396;2022-12-18T06:25:47;-7.90;99.90
2723;DHT22;1369;53.216;10.396;2022-12-18T06:28:12;-7.90;99.90
2723;DHT22;1369;53.216;10.396;2022-12-18T06:30:38;-7.90;99.90
2723;DHT22;1369;53.216;10.396;2022-12-18T06:33:03;-7.80;99.90
2723;DHT22;1369;53.216;10.396;2022-12-18T06:35:29;-7.80;99.90
2723;DHT22;1369;53.216;10.396;2022-12-18T06:37:54;-7.80;99.90
2723;DHT22;1369;53.216;10.396;2022-12-18T06:40:20;-7.80;99.90
2723;DHT22;1369;53.216;10.396;2022-12-18T06:42:45;-7.80;99.90
2723;DHT22;1369;53.216;10.396;2022-12-18T06:45:11;-7.80;99.90
2723;DHT22;1369;53.216;10.396;2022-12-18T06:47:36;-7.80;99.90
2723;DHT22;1369;53.216;10.396;2022-12-18T06:50:02;-7.80;99.90
2723;DHT22;1369;53.216;10.396;2022-12-18T06:52:28;-7.80;99.90
2723;DHT22;1369;53.216;10.396;2022-12-18T06:54:53;-7.80;99.90
2723;DHT22;1369;53.216;10.396;2022-12-18T06:57:19;-7.90;99.90
2723;DHT22;1369;53.216;10.396;2022-12-18T06:59:44;-7.90;99.90
2723;DHT22;1369;53.216;10.396;2022-12-18T07:02:13;-7.90;99.90
2723;DHT22;1369;53.216;10.396;2022-12-18T07:04:39;-7.90;99.90
2723;DHT22;1369;53.216;10.396;2022-12-18T07:07:05;-8.00;99.90
2723;DHT22;1369;53.216;10.396;2022-12-18T07:09:30;-8.10;99.90
2723;DHT22;1369;53.216;10.396;2022-12-18T07:11:55;-8.00;99.90
2723;DHT22;1369;53.216;10.396;2022-12-18T07:14:21;-8.00;99.90
2723;DHT22;1369;53.216;10.396;2022-12-18T07:16:46;-8.00;99.90
2723;DHT22;1369;53.216;10.396;2022-12-18T07:19:12;-8.00;99.90
2723;DHT22;1369;53.216;10.396;2022-12-18T07:21:37;-8.10;99.90
2723;DHT22;1369;53.216;10.396;2022-12-18T07:24:03;-8.10;99.90
2723;DHT22;1369;53.216;10.396;2022-12-18T07:26:29;-8.10;99.90
2723;DHT22;1369;53.216;10.396;2022-12-18T07:28:55;-8.00;99.90
2723;DHT22;1369;53.216;10.396;2022-12-18T07:31:22;-7.90;99.90
2723;DHT22;1369;53.216;10.396;2022-12-18T07:33:48;-7.90;99.90
2723;DHT22;1369;53.216;10.396;2022-12-18T07:36:14;-7.80;99.90
2723;DHT22;1369;53.216;10.396;2022-12-18T07:38:41;-7.80;99.90
2723;DHT22;1369;53.216;10.396;2022-12-18T07:41:09;-7.80;99.90
2723;DHT22;1369;53.216;10.396;2022-12-18T07:43:35;-7.80;99.90
2723;DHT22;1369;53.216;10.396;2022-12-18T07:46:01;-7.90;99.90
2723;DHT22;1369;53.216;10.396;2022-12-18T07:48:30;-7.90;99.90
2723;DHT22;1369;53.216;10.396;2022-12-18T07:51:04;-7.90;99.90
2723;DHT22;1369;53.216;10.396;2022-12-18T07:53:32;-7.90;99.90
2723;DHT22;1369;53.216;10.396;2022-12-18T07:56:02;-7.90;99.90
2723;DHT22;1369;53.216;10.396;2022-12-18T07:58:29;-7.80;99.90
2723;DHT22;1369;53.216;10.396;2022-12-18T08:01:04;-7.80;99.90
2723;DHT22;1369;53.216;10.396;2022-12-18T08:03:29;-7.80;99.90
2723;DHT22;1369;53.216;10.396;2022-12-18T08:06:02;-7.80;99.90
2723;DHT22;1369;53.216;10.396;2022-12-18T08:08:28;-7.90;99.90
2723;DHT22;1369;53.216;10.396;2022-12-18T08:10:54;-7.90;99.90
2723;DHT22;1369;53.216;10.396;2022-12-18T08:13:20;-8.00;99.90
2723;DHT22;1369;53.216;10.396;2022-12-18T08:15:45;-7.90;99.90
2723;DHT22;1369;53.216;10.396;2022-12-18T08:18:11;-7.80;99.90
2723;DHT22;1369;53.216;10.396;2022-12-18T08:20:36;-7.80;99.90
2723;DHT22;1369;53.216;10.396;2022-12-18T08:23:02;-7.70;99.90
2723;DHT22;1369;53.216;10.396;2022-12-18T08:25:27;-7.60;99.90
2723;DHT22;1369;53.216;10.396;2022-12-18T08:27:53;-7.60;99.90
2723;DHT22;1369;53.216;10.396;2022-12-18T08:30:19;-7.60;99.90
2723;DHT22;1369;53.216;10.396;2022-12-18T08:32:44;-7.60;99.90
2723;DHT22;1369;53.216;10.396;2022-12-18T08:35:10;-7.60;99.90
2723;DHT22;1369;53.216;10.396;2022-12-18T08:37:37;-7.50;99.90
2723;DHT22;1369;53.216;10.396;2022-12-18T08:40:03;-7.50;99.90
2723;DHT22;1369;53.216;10.396;2022-12-18T08:42:28;-7.40;99.90
2723;DHT22;1369;53.216;10.396;2022-12-18T08:45:12;-7.40;99.90
2723;DHT22;1369;53.216;10.396;2022-12-18T08:47:38;-7.30;99.90
2723;DHT22;1369;53.216;10.396;2022-12-18T08:50:04;-7.20;99.90
2723;DHT22;1369;53.216;10.396;2022-12-18T08:52:31;-7.10;99.90
2723;DHT22;1369;53.216;10.396;2022-12-18T08:54:57;-7.10;99.90
2723;DHT22;1369;53.216;10.396;2022-12-18T08:57:22;-7.00;99.90
2723;DHT22;1369;53.216;10.396;2022-12-18T08:59:48;-7.10;99.90
2723;DHT22;1369;53.216;10.396;2022-12-18T09:02:13;-7.00;99.90
2723;DHT22;1369;53.216;10.396;2022-12-18T09:04:39;-7.00;99.90
2723;DHT22;1369;53.216;10.396;2022-12-18T09:07:05;-6.90;99.90
2723;DHT22;1369;53.216;10.396;2022-12-18T09:09:30;-6.90;99.90
2723;DHT22;1369;53.216;10.396;2022-12-18T09:11:56;-6.80;99.90
2723;DHT22;1369;53.216;10.396;2022-12-18T09:14:21;-6.70;99.90
2723;DHT22;1369;53.216;10.396;2022-12-18T09:16:47;-6.60;99.90
2723;DHT22;1369;53.216;10.396;2022-12-18T09:19:12;-6.60;99.90
2723;DHT22;1369;53.216;10.396;2022-12-18T09:21:38;-6.60;99.90
2723;DHT22;1369;53.216;10.396;2022-12-18T09:24:05;-6.50;99.90
2723;DHT22;1369;53.216;10.396;2022-12-18T09:26:31;-6.50;99.90
2723;DHT22;1369;53.216;10.396;2022-12-18T09:28:56;-6.40;99.90
2723;DHT22;1369;53.216;10.396;2022-12-18T09:31:23;-6.40;99.90
2723;DHT22;1369;53.216;10.396;2022-12-18T09:33:49;-6.30;99.90
2723;DHT22;1369;53.216;10.396;2022-12-18T09:36:16;-6.30;99.90
2723;DHT22;1369;53.216;10.396;2022-12-18T09:38:42;-6.20;99.90
2723;DHT22;1369;53.216;10.396;2022-12-18T09:44:18;-6.20;99.90
2723;DHT22;1369;53.216;10.396;2022-12-18T09:46:50;-6.10;99.90
2723;DHT22;1369;53.216;10.396;2022-12-18T09:49:19;-6.00;99.90
2723;DHT22;1369;53.216;10.396;2022-12-18T09:51:57;-6.00;99.90
2723;DHT22;1369;53.216;10.396;2022-12-18T09:54:34;-5.90;99.90
2723;DHT22;1369;53.216;10.396;2022-12-18T09:57:01;-5.90;99.90
2723;DHT22;1369;53.216;10.396;2022-12-18T09:59:35;-5.80;99.90
2723;DHT22;1369;53.216;10.396;2022-12-18T10:02:17;-5.80;99.90
2723;DHT22;1369;53.216;10.396;2022-12-18T10:04:43;-5.70;99.90
2723;DHT22;1369;53.216;10.396;2022-12-18T10:07:33;-5.60;99.90
2723;DHT22;1369;53.216;10.396;2022-12-18T10:10:25;-5.50;99.90
2723;DHT22;1369;53.216;10.396;2022-12-18T10:12:55;-5.40;99.90
2723;DHT22;1369;53.216;10.396;2022-12-18T10:15:45;-5.30;99.90
2723;DHT22;1369;53.216;10.396;2022-12-18T10:18:41;-5.20;99.90
2723;DHT22;1369;53.216;10.396;2022-12-18T10:21:13;-5.00;99.90
2723;DHT22;1369;53.216;10.396;2022-12-18T10:26:36;-4.90;99.90
2723;DHT22;1369;53.216;10.396;2022-12-18T10:29:09;-4.90;99.90
2723;DHT22;1369;53.216;10.396;2022-12-18T10:31:36;-4.80;99.90
2723;DHT22;1369;53.216;10.396;2022-12-18T10:34:01;-4.80;99.90
2723;DHT22;1369;53.216;10.396;2022-12-18T10:36:27;-4.70;99.90
2723;DHT22;1369;53.216;10.396;2022-12-18T10:38:52;-4.60;99.90
2723;DHT22;1369;53.216;10.396;2022-12-18T10:43:51;-4.40;99.90
2723;DHT22;1369;53.216;10.396;2022-12-18T10:46:34;-4.20;99.90
2723;DHT22;1369;53.216;10.396;2022-12-18T10:48:59;-4.10;99.90
2723;DHT22;1369;53.216;10.396;2022-12-18T10:51:33;-4.10;99.90
2723;DHT22;1369;53.216;10.396;2022-12-18T10:54:21;-4.10;99.90
2723;DHT22;1369;53.216;10.396;2022-12-18T10:56:47;-4.10;99.90
2723;DHT22;1369;53.216;10.396;2022-12-18T10:59:15;-4.10;99.90
2723;DHT22;1369;53.216;10.396;2022-12-18T11:04:25;-4.00;99.90
2723;DHT22;1369;53.216;10.396;2022-12-18T11:07:03;-3.90;99.90
2723;DHT22;1369;53.216;10.396;2022-12-18T11:09:31;-4.00;99.90
2723;DHT22;1369;53.216;10.396;2022-12-18T11:12:02;-3.90;99.90
2723;DHT22;1369;53.216;10.396;2022-12-18T11:14:32;-3.90;99.90
2723;DHT22;1369;53.216;10.396;2022-12-18T11:16:59;-4.00;99.90
2723;DHT22;1369;53.216;10.396;2022-12-18T11:19:39;-3.90;99.90
2723;DHT22;1369;53.216;10.396;2022-12-18T11:24:59;-4.00;99.90
2723;DHT22;1369;53.216;10.396;2022-12-18T11:27:25;-3.90;99.90
2723;DHT22;1369;53.216;10.396;2022-12-18T11:29:51;-4.00;99.90
2723;DHT22;1369;53.216;10.396;2022-12-18T11:32:38;-3.90;99.90
2723;DHT22;1369;53.216;10.396;2022-12-18T11:35:19;-3.90;99.90
2723;DHT22;1369;53.216;10.396;2022-12-18T11:37:50;-3.80;99.90
2723;DHT22;1369;53.216;10.396;2022-12-18T11:40:24;-3.80;99.90
2723;DHT22;1369;53.216;10.396;2022-12-18T11:45:51;-3.70;99.90
2723;DHT22;1369;53.216;10.396;2022-12-18T11:48:26;-3.60;99.90
2723;DHT22;1369;53.216;10.396;2022-12-18T11:50:58;-3.50;99.90
2723;DHT22;1369;53.216;10.396;2022-12-18T11:53:26;-3.40;99.90
2723;DHT22;1369;53.216;10.396;2022-12-18T12:01:19;-3.30;99.90
2723;DHT22;1369;53.216;10.396;2022-12-18T12:04:15;-3.30;99.90
2723;DHT22;1369;53.216;10.396;2022-12-18T12:09:58;-3.20;99.90
2723;DHT22;1369;53.216;10.396;2022-12-18T12:12:52;-3.20;99.90
2723;DHT22;1369;53.216;10.396;2022-12-18T12:26:42;-3.20;99.90
2723;DHT22;1369;53.216;10.396;2022-12-18T12:29:40;-3.20;99.90
2723;DHT22;1369;53.216;10.396;2022-12-18T12:40:35;-3.10;99.90
2723;DHT22;1369;53.216;10.396;2022-12-18T12:46:00;-3.00;99.90
2723;DHT22;1369;53.216;10.396;2022-12-18T12:51:16;-3.10;99.90
2723;DHT22;1369;53.216;10.396;2022-12-18T12:53:42;-3.10;99.90
2723;DHT22;1369;53.216;10.396;2022-12-18T12:56:10;-3.00;99.90
2723;DHT22;1369;53.216;10.396;2022-12-18T12:59:00;-3.00;99.90
2723;DHT22;1369;53.216;10.396;2022-12-18T13:04:35;-2.90;99.90
2723;DHT22;1369;53.216;10.396;2022-12-18T13:07:22;-2.90;99.90
2723;DHT22;1369;53.216;10.396;2022-12-18T13:15:44;-2.70;99.90
2723;DHT22;1369;53.216;10.396;2022-12-18T13:20:51;-2.70;99.90
2723;DHT22;1369;53.216;10.396;2022-12-18T13:23:30;-2.80;99.90
2723;DHT22;1369;53.216;10.396;2022-12-18T13:34:24;-3.00;99.90
2723;DHT22;1369;53.216;10.396;2022-12-18T13:36:51;-3.00;99.90
2723;DHT22;1369;53.216;10.396;2022-12-18T13:41:47;-2.90;99.90
2723;DHT22;1369;53.216;10.396;2022-12-18T13:46:57;-3.10;99.90
2723;DHT22;1369;53.216;10.396;2022-12-18T13:49:37;-3.20;99.90
2723;DHT22;1369;53.216;10.396;2022-12-18T13:52:18;-3.20;99.90
2723;DHT22;1369;53.216;10.396;2022-12-18T13:54:50;-3.30;99.90
2723;DHT22;1369;53.216;10.396;2022-12-18T13:57:31;-3.30;99.90
2723;DHT22;1369;53.216;10.396;2022-12-18T13:59:59;-3.20;99.90
2723;DHT22;1369;53.216;10.396;2022-12-18T14:02:37;-3.30;99.90
2723;DHT22;1369;53.216;10.396;2022-12-18T14:05:03;-3.30;99.90
2723;DHT22;1369;53.216;10.396;2022-12-18T14:07:29;-3.40;99.90
2723;DHT22;1369;53.216;10.396;2022-12-18T14:09:58;-3.40;99.90
2723;DHT22;1369;53.216;10.396;2022-12-18T14:12:28;-3.40;99.90
2723;DHT22;1369;53.216;10.396;2022-12-18T14:17:54;-3.50;99.90
2723;DHT22;1369;53.216;10.396;2022-12-18T14:20:20;-3.50;99.90
2723;DHT22;1369;53.216;10.396;2022-12-18T14:22:48;-3.60;99.90
2723;DHT22;1369;53.216;10.396;2022-12-18T14:27:45;-3.60;99.90
2723;DHT22;1369;53.216;10.396;2022-12-18T14:30:28;-3.70;99.90
2723;DHT22;1369;53.216;10.396;2022-12-18T14:35:34;-3.70;99.90
2723;DHT22;1369;53.216;10.396;2022-12-18T14:38:35;-3.70;99.90
2723;DHT22;1369;53.216;10.396;2022-12-18T14:43:34;-3.80;99.90
2723;DHT22;1369;53.216;10.396;2022-12-18T14:46:01;-3.80;99.90
2723;DHT22;1369;53.216;10.396;2022-12-18T14:48:39;-3.80;99.90
2723;DHT22;1369;53.216;10.396;2022-12-18T14:51:12;-3.80;99.90
2723;DHT22;1369;53.216;10.396;2022-12-18T14:53:43;-3.80;99.90
2723;DHT22;1369;53.216;10.396;2022-12-18T14:58:47;-3.80;99.90
2723;DHT22;1369;53.216;10.396;2022-12-18T15:01:23;-3.80;99.90
2723;DHT22;1369;53.216;10.396;2022-12-18T15:03:50;-3.80;99.90
2723;DHT22;1369;53.216;10.396;2022-12-18T15:06:28;-3.80;99.90
2723;DHT22;1369;53.216;10.396;2022-12-18T15:08:55;-3.80;99.90
2723;DHT22;1369;53.216;10.396;2022-12-18T15:11:42;-3.80;99.90
2723;DHT22;1369;53.216;10.396;2022-12-18T15:17:01;-3.80;99.90
2723;DHT22;1369;53.216;10.396;2022-12-18T15:19:41;-3.80;99.90
2723;DHT22;1369;53.216;10.396;2022-12-18T15:22:34;-3.80;99.90
2723;DHT22;1369;53.216;10.396;2022-12-18T15:25:00;-3.80;99.90
2723;DHT22;1369;53.216;10.396;2022-12-18T15:27:29;-3.80;99.90
2723;DHT22;1369;53.216;10.396;2022-12-18T15:32:34;-3.80;99.90
2723;DHT22;1369;53.216;10.396;2022-12-18T15:35:14;-3.90;99.90
2723;DHT22;1369;53.216;10.396;2022-12-18T15:37:41;-3.80;99.90
2723;DHT22;1369;53.216;10.396;2022-12-18T15:40:11;-3.80;99.90
2723;DHT22;1369;53.216;10.396;2022-12-18T15:42:37;-3.70;99.90
2723;DHT22;1369;53.216;10.396;2022-12-18T15:45:21;-3.70;99.90
2723;DHT22;1369;53.216;10.396;2022-12-18T15:47:46;-3.70;99.90
2723;DHT22;1369;53.216;10.396;2022-12-18T15:50:12;-3.80;99.90
2723;DHT22;1369;53.216;10.396;2022-12-18T15:52:48;-3.80;99.90
2723;DHT22;1369;53.216;10.396;2022-12-18T15:55:20;-3.80;99.90
2723;DHT22;1369;53.216;10.396;2022-12-18T15:58:05;-3.80;99.90
2723;DHT22;1369;53.216;10.396;2022-12-18T16:00:32;-3.80;99.90
2723;DHT22;1369;53.216;10.396;2022-12-18T16:02:59;-3.70;99.90
2723;DHT22;1369;53.216;10.396;2022-12-18T16:05:26;-3.60;99.90
2723;DHT22;1369;53.216;10.396;2022-12-18T16:07:52;-3.60;99.90
2723;DHT22;1369;53.216;10.396;2022-12-18T16:10:17;-3.60;99.90
2723;DHT22;1369;53.216;10.396;2022-12-18T16:12:43;-3.60;99.90
2723;DHT22;1369;53.216;10.396;2022-12-18T16:15:11;-3.60;99.90
2723;DHT22;1369;53.216;10.396;2022-12-18T16:17:39;-3.60;99.90
2723;DHT22;1369;53.216;10.396;2022-12-18T16:20:16;-3.60;99.90
2723;DHT22;1369;53.216;10.396;2022-12-18T16:22:43;-3.50;99.90
2723;DHT22;1369;53.216;10.396;2022-12-18T16:25:18;-3.50;99.90
2723;DHT22;1369;53.216;10.396;2022-12-18T16:27:47;-3.50;99.90
2723;DHT22;1369;53.216;10.396;2022-12-18T16:30:17;-3.50;99.90
2723;DHT22;1369;53.216;10.396;2022-12-18T16:32:43;-3.50;99.90
2723;DHT22;1369;53.216;10.396;2022-12-18T16:35:11;-3.40;99.90
2723;DHT22;1369;53.216;10.396;2022-12-18T16:37:37;-3.40;99.90
2723;DHT22;1369;53.216;10.396;2022-12-18T16:40:03;-3.40;99.90
2723;DHT22;1369;53.216;10.396;2022-12-18T16:42:28;-3.30;99.90
2723;DHT22;1369;53.216;10.396;2022-12-18T16:44:54;-3.30;99.90
2723;DHT22;1369;53.216;10.396;2022-12-18T16:47:19;-3.30;99.90
2723;DHT22;1369;53.216;10.396;2022-12-18T16:49:45;-3.30;99.90
2723;DHT22;1369;53.216;10.396;2022-12-18T16:52:11;-3.30;99.90
2723;DHT22;1369;53.216;10.396;2022-12-18T16:54:36;-3.30;99.90
2723;DHT22;1369;53.216;10.396;2022-12-18T16:57:02;-3.30;99.90
2723;DHT22;1369;53.216;10.396;2022-12-18T16:59:29;-3.30;99.90
2723;DHT22;1369;53.216;10.396;2022-12-18T17:01:55;-3.30;99.90
2723;DHT22;1369;53.216;10.396;2022-12-18T17:04:21;-3.20;99.90
2723;DHT22;1369;53.216;10.396;2022-12-18T17:06:47;-3.20;99.90
2723;DHT22;1369;53.216;10.396;2022-12-18T17:09:17;-3.20;99.90
2723;DHT22;1369;53.216;10.396;2022-12-18T17:11:53;-3.20;99.90
2723;DHT22;1369;53.216;10.396;2022-12-18T17:14:21;-3.20;99.90
2723;DHT22;1369;53.216;10.396;2022-12-18T17:16:47;-3.20;99.90
2723;DHT22;1369;53.216;10.396;2022-12-18T17:19:13;-3.20;99.90
2723;DHT22;1369;53.216;10.396;2022-12-18T17:21:39;-3.20;99.90
2723;DHT22;1369;53.216;10.396;2022-12-18T17:24:05;-3.20;99.90
2723;DHT22;1369;53.216;10.396;2022-12-18T17:26:31;-3.20;99.90
2723;DHT22;1369;53.216;10.396;2022-12-18T17:28:57;-3.10;99.90
2723;DHT22;1369;53.216;10.396;2022-12-18T17:31:24;-3.10;99.90
2723;DHT22;1369;53.216;10.396;2022-12-18T17:33:50;-3.10;99.90
2723;DHT22;1369;53.216;10.396;2022-12-18T17:36:17;-3.10;99.90
2723;DHT22;1369;53.216;10.396;2022-12-18T17:38:43;-3.10;99.90
2723;DHT22;1369;53.216;10.396;2022-12-18T17:41:14;-3.10;99.90
2723;DHT22;1369;53.216;10.396;2022-12-18T17:43:39;-3.10;99.90
2723;DHT22;1369;53.216;10.396;2022-12-18T17:46:11;-3.10;99.90
2723;DHT22;1369;53.216;10.396;2022-12-18T17:48:37;-3.10;99.90
2723;DHT22;1369;53.216;10.396;2022-12-18T17:51:04;-3.00;99.90
2723;DHT22;1369;53.216;10.396;2022-12-18T17:53:30;-3.00;99.90
2723;DHT22;1369;53.216;10.396;2022-12-18T17:55:58;-3.00;99.90
2723;DHT22;1369;53.216;10.396;2022-12-18T17:58:26;-3.00;99.90